ヘルシンキ/ヴァンター の空港の天気 - METARとTAF

ヘルシンキ・ヴァンター国際空港 ( EFHK / HEL ) - フィンランド ヴァンター
飛行場実況気象(Metar)
観測時間05/28 14:50 EEST (05/28 11:50 UTC)
風向・風速南 6m/s
視程10km以上
天気現象
少しの雲 雲底高度 700m
全天の4割程度の雲 雲底高度 6100m
気温18℃
湿度60%
気圧1010hPa
METAREFHK 281150Z 17012KT 140V210 9999 FEW023 SCT200 18/10 Q1010 NOSIG
過去の天気等 Google飛行場航空写真 Wunderground天気予報

過去48時間のMETAR

飛行場予報(TAF)
発表時間: 5/28 14:23 EEST (5/28 11:23 UTC)
予報対象時間: 28日15時 EEST ~ 29日15時 EEST
風向・風速南 6m/s
視程10km以上
なし
28日16時 EEST ~ 28日18時 EEST に徐々に
風向・風速西南西 5m/s
29日1時 EEST ~ 29日3時 EEST に徐々に
風向・風速不定 1m/s
29日3時 EEST ~ 29日6時 EEST に一時的に
天気現象しゅう雨
全天の4割程度の積乱雲 雲底高度 1,520m
29日3時 EEST ~ 29日6時 EEST に 確率 30% で一時的に
天気現象雷雨
全天の8割程度の積乱雲 雲底高度 1,520m
29日9時 EEST ~ 29日11時 EEST に徐々に
風向・風速北 5m/s
TAF EFHK 281123Z 2812/2912 18012KT CAVOK
BECMG 2813/2815 24010KT
BECMG 2822/2824 VRB02KT
TEMPO 2900/2903 SHRA SCT050CB
PROB30 TEMPO 2900/2903 TSRA BKN050CB
BECMG 2906/2908 36010KT